1AK0 weather

Craig Cg Heliport
Craig, Alaska, United States

Public forecast

Using degrees Fahrenheit for public forecast. Weather courtesy of forecast.io.

METAR (pilot weather report)

Closest report is Klawock Airport, 6.7 nm (12.4 km) NNE. Retrieved 2019/07/22 22:53 UTC (58 minutes ago):

PAKW 222253Z AUTO VRB03KT 10SM CLR 25/14 A2990 RMK SLP124 T02500139 TSNO VIA AUTODIAL

TAF (pilot weather forecast)

Closest forecast is Klawock Airport, 6.7 nm (12.4 km) NNE. Retrieved 2019/07/22 18:27 UTC (5 hours ago):

TAF PAKW 221724Z 2218/2318 VRB04KT P6SM FEW090 FM230200 23007KT P6SM VCSH BKN080 FM231100 VRB04KT P6SM VCSH BKN035 AMD LTD TO CLD VIS AND WIND